Time;durP1;ratioP1;P1;durP2;ratioP2;P2;SDS_P1;SDS_P2;PMS_P1;PMS_P2;Temp;Humidity;BMP_temperature;BMP_pressure;BME280_temperature;BME280_humidity;BME280_pressure;Samples;Min_cycle;Max_cycle;Signal;HPM_P1;HPM_P2
2022/01/07 00:01:36;;;;;;;12.32;6.00;;;1.70;99.90;;;;;;5053178;28;20135;-55
2022/01/07 00:04:21;;;;;;;11.65;6.53;;;1.70;99.90;;;;;;5052212;28;20392;-54
2022/01/07 00:07:09;;;;;;;10.85;5.35;;;1.70;99.90;;;;;;5052140;28;20051;-54
2022/01/07 00:09:53;;;;;;;12.55;5.53;;;1.60;99.90;;;;;;5052356;28;20044;-53
2022/01/07 00:12:37;;;;;;;13.05;6.45;;;1.60;99.90;;;;;;5052982;28;20519;-56
2022/01/07 00:15:22;;;;;;;11.02;5.80;;;1.60;99.90;;;;;;5052339;28;20522;-56
2022/01/07 00:18:07;;;;;;;13.82;6.38;;;1.60;99.90;;;;;;5051243;28;20086;-53
2022/01/07 00:20:53;;;;;;;8.52;5.05;;;1.60;99.90;;;;;;5053200;28;20086;-55
2022/01/07 00:23:38;;;;;;;8.30;4.80;;;1.70;99.90;;;;;;5052442;28;20078;-56
2022/01/07 00:26:22;;;;;;;9.20;5.55;;;1.70;99.90;;;;;;5051962;28;20032;-55
2022/01/07 00:29:06;;;;;;;9.38;4.68;;;1.70;99.90;;;;;;5051870;28;20048;-58
2022/01/07 00:31:50;;;;;;;9.27;4.72;;;1.70;99.90;;;;;;5052831;28;20040;-55
2022/01/07 00:34:35;;;;;;;9.07;5.00;;;1.70;99.90;;;;;;5054603;28;20044;-52
2022/01/07 00:37:19;;;;;;;7.78;4.75;;;1.70;99.90;;;;;;5056912;28;20423;-53
2022/01/07 00:40:06;;;;;;;9.60;5.28;;;1.70;99.90;;;;;;5055654;28;20056;-55
2022/01/07 00:42:52;;;;;;;11.07;5.50;;;1.70;99.90;;;;;;5053313;28;20076;-53
2022/01/07 00:45:36;;;;;;;16.48;6.22;;;1.60;99.90;;;;;;5055136;28;20063;-57
2022/01/07 00:48:20;;;;;;;11.45;5.25;;;1.60;99.90;;;;;;5055433;28;20075;-56
2022/01/07 00:51:09;;;;;;;11.83;5.53;;;1.60;99.90;;;;;;5055622;28;20059;-57
2022/01/07 00:53:53;;;;;;;9.93;5.03;;;1.50;99.90;;;;;;5054702;28;20036;-57
2022/01/07 00:56:37;;;;;;;10.50;4.47;;;1.40;99.90;;;;;;5054021;28;20527;-55
2022/01/07 00:59:21;;;;;;;10.15;5.05;;;1.40;99.90;;;;;;5055008;28;20072;-56
2022/01/07 01:02:06;;;;;;;8.63;4.93;;;1.30;99.90;;;;;;5056135;28;20035;-59
2022/01/07 01:04:50;;;;;;;7.60;4.87;;;1.30;99.90;;;;;;5054085;28;20043;-52
2022/01/07 01:07:34;;;;;;;9.45;4.75;;;1.40;99.90;;;;;;5052763;28;20488;-56
2022/01/07 01:10:20;;;;;;;12.80;5.55;;;1.40;99.90;;;;;;5051795;28;20024;-57
2022/01/07 01:13:04;;;;;;;7.97;4.43;;;1.30;99.90;;;;;;5054240;28;20545;-57
2022/01/07 01:15:49;;;;;;;11.43;4.50;;;1.40;99.90;;;;;;5054701;28;20132;-57
2022/01/07 01:18:34;;;;;;;9.65;4.78;;;1.40;99.90;;;;;;5055525;28;20182;-57
2022/01/07 01:21:18;;;;;;;11.18;5.35;;;1.40;99.90;;;;;;5055826;28;20032;-58
2022/01/07 01:24:03;;;;;;;8.73;4.80;;;1.40;99.90;;;;;;5052419;28;20040;-55
2022/01/07 01:26:47;;;;;;;;;;;1.40;99.90;;;;;;5055356;28;20397;-54
2022/01/07 01:29:32;;;;;;;13.25;4.88;;;1.50;99.90;;;;;;5052629;28;20055;-53
2022/01/07 01:32:16;;;;;;;9.98;4.72;;;1.60;99.90;;;;;;5054794;28;20028;-57
2022/01/07 01:35:02;;;;;;;9.63;5.15;;;1.50;99.90;;;;;;5055335;28;20079;-58
2022/01/07 01:37:47;;;;;;;12.25;5.28;;;1.40;99.90;;;;;;5054373;28;20025;-54
2022/01/07 01:40:33;;;;;;;10.15;4.68;;;1.40;99.90;;;;;;5053809;28;20110;-56
2022/01/07 01:43:17;;;;;;;10.20;4.72;;;1.50;99.90;;;;;;5054137;28;20054;-57
2022/01/07 01:46:01;;;;;;;9.90;5.25;;;1.40;99.90;;;;;;5052249;28;20059;-53
2022/01/07 01:48:46;;;;;;;9.63;4.82;;;1.50;99.90;;;;;;5054293;28;20459;-56
2022/01/07 01:51:31;;;;;;;14.82;5.70;;;1.50;99.90;;;;;;5054402;28;20075;-56
2022/01/07 01:54:15;;;;;;;8.02;5.05;;;1.60;99.90;;;;;;5054142;28;20036;-57
2022/01/07 01:56:59;;;;;;;8.57;4.82;;;1.60;99.90;;;;;;5061329;28;20040;-55
2022/01/07 01:59:43;;;;;;;8.55;5.00;;;1.50;99.90;;;;;;5059111;28;20184;-56
2022/01/07 02:02:27;;;;;;;12.15;5.85;;;1.40;99.90;;;;;;5061440;28;20051;-54
2022/01/07 02:05:12;;;;;;;10.00;5.10;;;1.50;99.90;;;;;;5059497;28;20067;-52
2022/01/07 02:07:56;;;;;;;10.52;5.22;;;1.50;99.90;;;;;;5060182;28;20043;-57
2022/01/07 02:10:40;;;;;;;9.60;5.03;;;1.50;99.90;;;;;;5062405;28;20138;-55
2022/01/07 02:13:24;;;;;;;7.90;5.72;;;1.50;99.90;;;;;;5050871;28;20086;-56
2022/01/07 02:16:09;;;;;;;9.27;5.53;;;1.50;99.90;;;;;;5049438;28;20075;-55
2022/01/07 02:18:53;;;;;;;10.68;4.88;;;1.40;99.90;;;;;;5054458;28;20047;-55
2022/01/07 02:21:38;;;;;;;13.40;5.72;;;1.40;99.90;;;;;;5039461;28;20051;-57
2022/01/07 02:24:22;;;;;;;11.88;5.40;;;1.40;99.90;;;;;;5053183;28;20044;-56
2022/01/07 02:27:07;;;;;;;12.65;5.80;;;1.40;99.90;;;;;;5054661;28;20028;-54
2022/01/07 02:29:51;;;;;;;8.68;5.00;;;1.40;99.90;;;;;;5054162;28;20444;-55
2022/01/07 02:32:36;;;;;;;11.13;5.00;;;1.40;99.90;;;;;;5054150;28;20142;-56
2022/01/07 02:35:22;;;;;;;11.73;5.05;;;1.50;99.90;;;;;;5053745;28;20091;-55
2022/01/07 02:38:06;;;;;;;11.00;5.43;;;1.40;99.90;;;;;;5054184;28;20103;-50
2022/01/07 02:40:50;;;;;;;17.85;5.18;;;1.40;99.90;;;;;;5054155;28;20114;-52
2022/01/07 02:43:34;;;;;;;9.70;5.18;;;1.40;99.90;;;;;;5054230;28;20045;-52
2022/01/07 02:46:18;;;;;;;10.32;5.25;;;1.40;99.90;;;;;;5055562;28;20095;-53
2022/01/07 02:49:14;;;;;;;13.23;5.88;;;1.30;99.90;;;;;;5055696;28;20550;-55
2022/01/07 02:51:58;;;;;;;8.40;5.05;;;1.20;99.90;;;;;;5055306;28;20131;-54
2022/01/07 02:54:42;;;;;;;12.52;5.57;;;1.20;99.90;;;;;;5054241;28;20075;-51
2022/01/07 02:57:26;;;;;;;10.68;5.55;;;1.20;99.90;;;;;;5052700;28;20032;-55
2022/01/07 03:00:12;;;;;;;9.70;5.45;;;1.20;99.90;;;;;;5053761;28;20518;-53
2022/01/07 03:02:58;;;;;;;11.02;6.00;;;1.20;99.90;;;;;;5053551;28;20036;-54
2022/01/07 03:05:42;;;;;;;13.35;5.35;;;1.30;99.90;;;;;;5053581;28;20483;-55
2022/01/07 03:08:26;;;;;;;10.95;5.60;;;1.30;99.90;;;;;;5053191;28;20047;-55
2022/01/07 03:11:10;;;;;;;12.85;5.63;;;1.30;99.90;;;;;;5053220;28;20039;-57
2022/01/07 03:13:54;;;;;;;11.82;6.38;;;1.30;99.90;;;;;;5053116;28;20079;-54
2022/01/07 03:16:39;;;;;;;10.57;5.68;;;1.40;99.90;;;;;;5053444;28;20075;-52
2022/01/07 03:19:24;;;;;;;11.68;6.22;;;1.40;99.90;;;;;;5052840;28;20111;-53
2022/01/07 03:22:08;;;;;;;17.42;5.80;;;1.40;99.90;;;;;;5050487;28;20127;-55
2022/01/07 03:24:55;;;;;;;10.85;5.65;;;1.50;99.90;;;;;;5046470;28;20464;-56
2022/01/07 03:27:39;;;;;;;9.65;5.78;;;1.50;99.90;;;;;;5046046;28;20098;-55
2022/01/07 03:30:23;;;;;;;10.40;5.78;;;1.50;99.90;;;;;;5047628;28;20416;-56
2022/01/07 03:33:08;;;;;;;11.27;5.55;;;1.40;99.90;;;;;;5052805;28;20032;-56
2022/01/07 03:35:52;;;;;;;10.85;5.82;;;1.50;99.90;;;;;;5053405;28;20098;-57
2022/01/07 03:38:37;;;;;;;9.05;5.22;;;1.50;99.90;;;;;;5052591;28;20075;-56
2022/01/07 03:41:21;;;;;;;10.25;5.45;;;1.50;99.90;;;;;;5044736;28;20095;-54
2022/01/07 03:44:05;;;;;;;14.07;5.78;;;1.50;99.90;;;;;;5048481;28;20143;-56
2022/01/07 03:46:49;;;;;;;11.93;6.03;;;1.60;99.90;;;;;;5053633;28;20586;-57
2022/01/07 03:49:33;;;;;;;17.95;6.38;;;1.60;99.90;;;;;;5053601;28;20028;-56
2022/01/07 03:52:17;;;;;;;17.05;6.35;;;1.60;99.90;;;;;;5053541;28;20464;-54
2022/01/07 03:55:04;;;;;;;10.60;5.88;;;1.60;99.90;;;;;;5054074;28;20443;-55
2022/01/07 03:57:48;;;;;;;12.52;6.13;;;1.60;99.90;;;;;;5053654;28;20048;-52
2022/01/07 04:00:37;;;;;;;14.23;6.15;;;1.50;99.90;;;;;;5052670;28;20032;-52
2022/01/07 04:03:22;;;;;;;14.20;6.78;;;1.50;99.90;;;;;;5053163;28;20044;-54
2022/01/07 04:06:06;;;;;;;13.98;6.85;;;1.50;99.90;;;;;;5053168;28;20074;-57
2022/01/07 04:08:50;;;;;;;12.48;6.35;;;1.50;99.90;;;;;;5052459;28;20396;-53
2022/01/07 04:11:34;;;;;;;15.13;8.25;;;1.50;99.90;;;;;;5057056;28;20083;-53
2022/01/07 04:14:18;;;;;;;12.52;7.30;;;1.50;99.90;;;;;;5041861;28;20543;-53
2022/01/07 04:17:02;;;;;;;20.67;7.43;;;1.50;99.90;;;;;;5057588;28;20032;-56
2022/01/07 04:19:47;;;;;;;16.73;7.65;;;1.50;99.90;;;;;;5056413;28;20063;-54
2022/01/07 04:22:33;;;;;;;14.88;6.95;;;1.40;99.90;;;;;;5057146;28;20114;-58
2022/01/07 04:25:18;;;;;;;16.35;7.32;;;1.50;99.90;;;;;;5037166;28;20037;-55
2022/01/07 04:28:06;;;;;;;12.75;7.05;;;1.40;99.90;;;;;;5038338;28;20084;-56
2022/01/07 04:30:50;;;;;;;14.75;7.20;;;1.40;99.90;;;;;;5056947;28;20123;-54
2022/01/07 04:33:35;;;;;;;14.15;6.97;;;1.50;99.90;;;;;;5055709;28;20104;-54
2022/01/07 04:36:18;;;;;;;14.18;7.32;;;1.60;99.90;;;;;;5056888;28;20135;-57
2022/01/07 04:39:03;;;;;;;13.90;6.10;;;1.60;99.90;;;;;;5056849;28;20043;-55
2022/01/07 04:41:47;;;;;;;17.15;7.07;;;1.50;99.90;;;;;;5056570;28;20126;-54
2022/01/07 04:44:32;;;;;;;13.97;6.73;;;1.50;99.90;;;;;;5056057;28;20604;-52
2022/01/07 04:47:16;;;;;;;12.00;6.88;;;1.50;99.90;;;;;;5056760;28;20094;-55
2022/01/07 04:50:03;;;;;;;13.55;6.50;;;1.40;99.90;;;;;;5055980;28;20071;-57
2022/01/07 04:52:47;;;;;;;14.77;6.25;;;1.50;99.90;;;;;;5056036;28;20399;-56
2022/01/07 04:55:37;;;;;;;14.15;7.38;;;1.40;99.90;;;;;;5056045;28;20036;-56
2022/01/07 04:58:21;;;;;;;16.08;7.15;;;1.50;99.90;;;;;;5055605;28;20507;-53
2022/01/07 05:01:05;;;;;;;18.25;6.40;;;1.60;99.90;;;;;;5056333;28;20044;-57
2022/01/07 05:03:49;;;;;;;20.67;6.72;;;1.60;99.90;;;;;;5055872;28;20040;-56
2022/01/07 05:06:54;;;;;;;12.32;6.18;;;1.70;99.90;;;;;;5055780;28;20040;-55
2022/01/07 05:09:38;;;;;;;13.05;6.88;;;1.70;99.90;;;;;;5055699;28;20044;-56
2022/01/07 05:12:22;;;;;;;18.20;8.80;;;1.70;99.90;;;;;;5054968;28;20052;-54
2022/01/07 05:15:06;;;;;;;22.95;12.10;;;1.70;99.90;;;;;;5055808;28;20040;-53
2022/01/07 05:17:51;;;;;;;14.52;8.07;;;1.70;99.90;;;;;;5054818;28;20056;-56
2022/01/07 05:20:35;;;;;;;19.98;8.95;;;1.60;99.90;;;;;;5054850;28;20051;-57
2022/01/07 05:23:19;;;;;;;13.57;7.95;;;1.60;99.90;;;;;;5047385;28;20151;-57
2022/01/07 05:26:06;;;;;;;12.88;7.55;;;1.70;99.90;;;;;;5035604;28;20762;-56
2022/01/07 05:28:51;;;;;;;15.32;7.53;;;1.70;99.90;;;;;;5035540;28;20041;-56
2022/01/07 05:31:35;;;;;;;15.13;7.05;;;1.80;99.90;;;;;;5042945;28;20119;-55
2022/01/07 05:34:19;;;;;;;13.73;6.72;;;1.70;99.90;;;;;;5055563;28;20047;-52
2022/01/07 05:37:03;;;;;;;19.65;6.65;;;1.80;99.90;;;;;;5055103;28;20040;-54
2022/01/07 05:39:48;;;;;;;15.50;7.55;;;1.90;99.90;;;;;;5055950;28;20543;-55
2022/01/07 05:42:32;;;;;;;17.80;6.55;;;1.90;99.90;;;;;;5056176;28;20506;-55
2022/01/07 05:45:16;;;;;;;20.77;7.80;;;1.90;99.90;;;;;;5055944;28;20044;-54
2022/01/07 05:48:00;;;;;;;13.63;6.25;;;1.90;99.90;;;;;;5053969;28;20086;-56
2022/01/07 05:50:44;;;;;;;15.57;6.63;;;1.80;99.90;;;;;;5056021;28;20040;-56
2022/01/07 05:53:28;;;;;;;12.77;5.65;;;1.90;99.90;;;;;;5035745;28;20083;-55
2022/01/07 05:56:12;;;;;;;14.32;6.40;;;1.90;99.90;;;;;;5040423;28;20032;-55
2022/01/07 05:58:56;;;;;;;15.30;6.38;;;1.90;99.90;;;;;;5054770;28;20071;-55
2022/01/07 06:01:41;;;;;;;15.93;7.20;;;1.90;99.90;;;;;;5055268;28;20047;-56
2022/01/07 06:04:25;;;;;;;13.70;6.25;;;1.90;99.90;;;;;;5053795;28;20094;-54
2022/01/07 06:07:09;;;;;;;11.13;5.32;;;1.90;99.90;;;;;;5054872;28;20561;-56
2022/01/07 06:09:53;;;;;;;11.60;6.33;;;1.90;99.90;;;;;;5055728;28;20062;-54
2022/01/07 06:12:39;;;;;;;13.13;6.30;;;2.00;99.90;;;;;;5054581;28;20040;-55
2022/01/07 06:15:23;;;;;;;19.27;6.63;;;1.90;99.90;;;;;;5053604;28;20102;-57
2022/01/07 06:18:07;;;;;;;13.63;6.90;;;1.90;99.90;;;;;;5055489;28;20407;-57
2022/01/07 06:20:51;;;;;;;11.40;6.45;;;1.90;99.90;;;;;;5054980;28;20044;-52
2022/01/07 06:23:35;;;;;;;12.60;5.95;;;1.90;99.90;;;;;;5054849;28;20594;-57
2022/01/07 06:26:19;;;;;;;17.00;7.20;;;2.00;99.90;;;;;;5053665;28;20151;-54
2022/01/07 06:29:04;;;;;;;15.23;7.10;;;2.00;99.90;;;;;;5039457;28;20039;-58
2022/01/07 06:31:48;;;;;;;15.32;7.30;;;2.00;99.90;;;;;;5052580;28;20159;-53
2022/01/07 06:34:33;;;;;;;13.57;6.68;;;2.00;99.90;;;;;;5050889;28;20059;-54
2022/01/07 06:37:17;;;;;;;15.70;7.68;;;2.00;99.90;;;;;;5053649;28;20052;-55
2022/01/07 06:40:02;;;;;;;15.93;7.88;;;2.00;99.90;;;;;;5053887;28;20407;-52
2022/01/07 06:42:47;;;;;;;19.27;7.13;;;2.00;99.90;;;;;;5054033;28;20075;-56
2022/01/07 06:45:31;;;;;;;13.30;7.45;;;2.00;99.90;;;;;;5053752;28;20051;-53
2022/01/07 06:48:15;;;;;;;18.63;8.80;;;1.90;99.90;;;;;;5055259;28;20192;-53
2022/01/07 06:50:59;;;;;;;18.65;9.13;;;2.00;99.90;;;;;;5055243;28;20031;-52
2022/01/07 06:53:43;;;;;;;16.17;8.25;;;2.10;99.90;;;;;;5054438;28;20056;-56
2022/01/07 06:56:28;;;;;;;19.70;8.40;;;2.10;99.90;;;;;;5054368;28;20068;-52
2022/01/07 06:59:13;;;;;;;15.57;8.07;;;2.10;99.90;;;;;;5054271;28;20043;-54
2022/01/07 07:01:57;;;;;;;19.98;8.88;;;2.00;99.90;;;;;;5053730;28;20466;-56
2022/01/07 07:04:44;;;;;;;20.98;11.75;;;2.00;99.90;;;;;;5053498;28;20044;-54
2022/01/07 07:07:28;;;;;;;13.25;8.02;;;2.00;99.90;;;;;;5053812;28;20098;-56
2022/01/07 07:10:12;;;;;;;14.50;8.73;;;2.00;99.90;;;;;;5053523;28;20036;-55
2022/01/07 07:12:56;;;;;;;15.85;9.43;;;2.00;99.90;;;;;;5033749;28;20060;-56
2022/01/07 07:15:40;;;;;;;17.25;8.93;;;2.10;99.90;;;;;;5032725;28;20032;-58
2022/01/07 07:18:24;;;;;;;16.77;8.95;;;2.20;99.90;;;;;;5033455;28;20033;-55
2022/01/07 07:21:08;;;;;;;17.52;7.90;;;2.10;99.90;;;;;;5033741;28;20052;-57
2022/01/07 07:23:53;;;;;;;16.33;9.57;;;2.10;99.90;;;;;;5036623;28;20044;-57
2022/01/07 07:26:38;;;;;;;17.25;8.20;;;2.10;99.90;;;;;;5053491;28;20278;-56
2022/01/07 07:29:22;;;;;;;;;;;2.10;99.90;;;;;;5053658;28;20035;-58
2022/01/07 07:32:07;;;;;;;15.48;8.30;;;2.20;99.90;;;;;;5053516;28;20276;-56
2022/01/07 07:38:05;;;;;;;17.08;10.68;;;2.20;99.90;;;;;;5021470;28;20670;-56
2022/01/07 07:40:50;;;;;;;15.90;8.27;;;2.20;99.90;;;;;;5052116;28;20033;-53
2022/01/07 07:43:35;;;;;;;16.23;8.63;;;2.20;99.90;;;;;;5050931;28;20095;-57
2022/01/07 07:46:20;;;;;;;14.30;8.70;;;2.20;99.90;;;;;;5052062;28;20399;-56
2022/01/07 07:49:06;;;;;;;14.95;8.93;;;2.30;99.90;;;;;;5049446;28;20036;-55
2022/01/07 07:51:51;;;;;;;17.30;8.65;;;2.20;99.90;;;;;;5053464;28;20028;-55
2022/01/07 07:54:36;;;;;;;19.52;8.68;;;2.30;99.90;;;;;;5052756;28;20101;-56
2022/01/07 07:57:20;;;;;;;16.23;8.87;;;2.30;99.90;;;;;;5052888;28;20075;-57
2022/01/07 08:00:06;;;;;;;17.58;8.82;;;2.40;99.90;;;;;;5038198;28;20546;-57
2022/01/07 08:02:50;;;;;;;12.30;7.88;;;2.30;99.90;;;;;;5053142;28;20099;-56
2022/01/07 08:05:35;;;;;;;13.65;7.88;;;2.30;99.90;;;;;;5052082;28;20048;-56
2022/01/07 08:08:19;;;;;;;17.65;8.25;;;2.40;99.90;;;;;;5052552;28;20079;-54
2022/01/07 08:11:07;;;;;;;20.20;8.27;;;2.40;99.90;;;;;;5047142;28;20075;-56
2022/01/07 08:16:53;;;;;;;14.52;8.07;;;2.50;99.90;;;;;;5053067;28;20159;-59
2022/01/07 08:19:38;;;;;;;12.40;7.82;;;2.50;99.90;;;;;;5052619;28;20162;-53
2022/01/07 08:22:23;;;;;;;11.20;7.22;;;2.50;99.90;;;;;;5047877;28;20095;-52
2022/01/07 08:25:07;;;;;;;13.60;7.95;;;2.50;99.90;;;;;;5048599;28;20036;-56
2022/01/07 08:27:51;;;;;;;15.65;7.90;;;2.50;99.90;;;;;;5053375;28;20039;-58
2022/01/07 08:30:36;;;;;;;14.85;8.02;;;2.50;99.90;;;;;;5051268;28;20478;-55
2022/01/07 08:36:26;;;;;;;16.98;8.73;;;2.50;99.90;;;;;;5041503;28;20027;-57
2022/01/07 08:39:11;;;;;;;15.07;7.90;;;2.50;99.90;;;;;;5039793;28;20114;-55
2022/01/07 08:41:55;;;;;;;20.65;9.90;;;2.60;99.90;;;;;;5050155;28;20066;-58
2022/01/07 08:44:40;;;;;;;13.95;8.25;;;2.50;99.90;;;;;;5050719;28;20083;-51
2022/01/07 08:47:25;;;;;;;16.30;8.20;;;2.60;99.90;;;;;;5051489;28;20048;-57
2022/01/07 08:50:09;;;;;;;12.95;9.13;;;2.60;99.90;;;;;;5049004;28;20035;-57
2022/01/07 08:52:56;;;;;;;16.63;8.85;;;2.60;99.90;;;;;;5051249;28;20059;-57
2022/01/07 08:55:40;;;;;;;13.27;8.20;;;2.60;99.90;;;;;;5052765;28;20641;-54
2022/01/07 08:58:24;;;;;;;15.03;8.67;;;2.80;99.90;;;;;;5056294;28;20044;-57
2022/01/07 09:01:08;;;;;;;16.05;8.75;;;2.80;99.90;;;;;;5056584;28;20404;-52
2022/01/07 09:03:52;;;;;;;12.02;7.75;;;2.80;99.90;;;;;;5056229;28;20044;-56
2022/01/07 09:06:36;;;;;;;14.70;9.05;;;2.80;99.90;;;;;;5056024;28;20091;-58
2022/01/07 09:09:20;;;;;;;16.90;8.80;;;2.70;99.90;;;;;;5046810;28;20036;-60
2022/01/07 09:12:05;;;;;;;15.05;9.20;;;2.80;99.90;;;;;;5052923;28;20113;-51
2022/01/07 09:14:50;;;;;;;;;;;2.70;99.90;;;;;;5036602;28;20037;-58
2022/01/07 09:17:35;;;;;;;16.42;8.98;;;2.70;99.90;;;;;;5044481;28;19966;-53
2022/01/07 09:20:21;;;;;;;11.95;8.27;;;2.80;99.90;;;;;;5054304;28;20527;-57
2022/01/07 09:23:06;;;;;;;15.25;9.05;;;2.80;99.90;;;;;;5054148;28;20082;-55
2022/01/07 09:25:50;;;;;;;;;;;2.80;99.90;;;;;;5056199;28;20028;-59
2022/01/07 09:28:34;;;;;;;14.85;9.02;;;2.80;99.90;;;;;;5050785;28;20390;-55
2022/01/07 09:31:18;;;;;;;13.27;9.13;;;2.90;99.90;;;;;;5056060;28;20044;-50
2022/01/07 09:34:03;;;;;;;15.60;8.90;;;2.90;99.90;;;;;;5055364;28;20071;-59
2022/01/07 09:36:47;;;;;;;;;;;2.80;99.90;;;;;;5054367;28;20079;-58
2022/01/07 09:39:33;;;;;;;16.40;8.65;;;2.90;99.90;;;;;;5053724;28;19912;-60
2022/01/07 09:42:17;;;;;;;13.70;8.65;;;2.80;99.90;;;;;;5054003;28;20040;-57
2022/01/07 09:45:02;;;;;;;18.75;9.90;;;2.90;99.90;;;;;;5055606;28;20035;-58
2022/01/07 09:47:46;;;;;;;13.48;8.20;;;2.90;99.90;;;;;;5055349;28;20040;-59
2022/01/07 09:50:32;;;;;;;17.48;8.43;;;2.90;99.90;;;;;;5054912;28;20079;-59
2022/01/07 09:53:16;;;;;;;16.80;7.53;;;2.90;99.90;;;;;;5054947;28;20031;-56
2022/01/07 09:56:03;;;;;;;19.75;8.65;;;2.90;99.90;;;;;;5055584;28;20095;-57
2022/01/07 09:58:48;;;;;;;12.77;8.23;;;2.90;99.90;;;;;;5054984;28;20110;-58
2022/01/07 10:01:53;;;;;;;15.80;10.65;;;2.90;99.90;;;;;;5040310;28;20036;-58
2022/01/07 10:04:41;;;;;;;11.88;7.70;;;3.00;99.90;;;;;;5034255;28;20041;-56
2022/01/07 10:07:25;;;;;;;13.52;8.57;;;3.10;99.90;;;;;;5040369;28;20086;-59
2022/01/07 10:10:19;;;;;;;15.75;8.80;;;3.00;99.90;;;;;;5051993;28;20036;-55
2022/01/07 10:13:04;;;;;;;13.77;6.97;;;3.10;99.90;;;;;;5052214;28;20516;-57
2022/01/07 10:15:48;;;;;;;18.58;8.10;;;3.10;99.90;;;;;;5054556;28;20055;-61
2022/01/07 10:18:37;;;;;;;13.85;7.32;;;3.20;99.90;;;;;;5054263;28;20047;-56
2022/01/07 10:21:22;;;;;;;14.45;6.93;;;3.20;99.90;;;;;;5045602;28;20122;-56
2022/01/07 10:24:06;;;;;;;12.70;6.88;;;3.30;99.90;;;;;;5054289;28;20095;-56
2022/01/07 10:27:11;;;;;;;15.60;6.40;;;3.20;99.90;;;;;;5052780;28;20071;-56
2022/01/07 10:29:55;;;;;;;12.07;6.85;;;3.30;99.90;;;;;;5051884;28;20582;-59
2022/01/07 10:32:40;;;;;;;18.30;7.97;;;3.30;99.90;;;;;;5053652;28;20507;-53
2022/01/07 10:35:26;;;;;;;17.60;7.43;;;3.30;99.90;;;;;;5050129;28;20090;-57
2022/01/07 10:38:19;;;;;;;15.73;7.32;;;3.30;99.90;;;;;;5052999;28;20075;-54
2022/01/07 10:41:04;;;;;;;14.80;7.20;;;3.30;99.90;;;;;;5052120;28;20044;-56
2022/01/07 10:43:49;;;;;;;17.17;7.13;;;3.40;99.90;;;;;;5054421;28;20040;-54
2022/01/07 10:46:33;;;;;;;12.73;6.35;;;3.40;99.90;;;;;;5054141;28;20087;-57
2022/01/07 10:49:30;;;;;;;12.65;5.95;;;3.50;99.90;;;;;;5045309;28;20039;-57
2022/01/07 10:52:22;;;;;;;10.40;6.25;;;3.60;99.90;;;;;;5051351;28;20104;-57
2022/01/07 10:55:27;;;;;;;10.00;6.30;;;3.60;99.90;;;;;;5053031;28;20131;-58
2022/01/07 10:58:12;;;;;;;9.43;5.28;;;3.50;99.90;;;;;;5062452;28;20442;-58
2022/01/07 11:00:56;;;;;;;13.88;7.43;;;3.50;99.90;;;;;;5051737;28;20036;-54
2022/01/07 11:03:40;;;;;;;10.73;6.00;;;3.60;99.90;;;;;;5048971;28;20500;-54
2022/01/07 11:06:27;;;;;;;12.48;6.20;;;3.60;99.90;;;;;;5052433;28;20039;-53
2022/01/07 11:09:12;;;;;;;11.32;5.80;;;3.60;99.90;;;;;;5051813;28;20102;-58
2022/01/07 11:12:00;;;;;;;10.65;5.82;;;3.60;99.90;;;;;;5052797;28;20102;-54
2022/01/07 11:14:44;;;;;;;7.45;5.38;;;3.60;99.90;;;;;;5050437;28;20035;-54
2022/01/07 11:17:29;;;;;;;10.40;6.00;;;3.60;99.90;;;;;;5048526;28;20044;-56
2022/01/07 11:20:16;;;;;;;8.55;6.18;;;3.50;99.90;;;;;;5053125;28;20055;-55
2022/01/07 11:23:00;;;;;;;15.20;7.38;;;3.50;99.90;;;;;;5053176;28;20036;-50
2022/01/07 11:25:59;;;;;;;11.00;6.53;;;3.50;99.90;;;;;;5052631;28;20040;-56
2022/01/07 11:28:59;;;;;;;9.45;6.75;;;3.50;99.90;;;;;;5050985;28;20071;-58
2022/01/07 11:31:42;;;;;;;15.63;7.20;;;3.40;99.90;;;;;;5043060;28;20075;-55
2022/01/07 11:34:27;;;;;;;10.60;7.40;;;3.30;99.90;;;;;;5047282;28;20040;-59
2022/01/07 11:37:37;;;;;;;13.93;7.47;;;3.10;99.90;;;;;;5052660;28;20032;-57
2022/01/07 11:40:33;;;;;;;12.25;7.32;;;3.10;99.90;;;;;;5053422;28;20515;-52
2022/01/07 11:43:17;;;;;;;14.32;7.20;;;3.00;99.90;;;;;;5053676;28;20047;-55
2022/01/07 11:46:24;;;;;;;9.13;6.97;;;2.90;99.90;;;;;;5052575;28;20396;-54
2022/01/07 11:49:35;;;;;;;10.60;6.70;;;2.80;99.90;;;;;;5030699;28;20235;-52
2022/01/07 11:52:35;;;;;;;13.05;7.20;;;2.70;99.90;;;;;;5051590;28;20037;-58
2022/01/07 11:55:29;;;;;;;14.18;8.30;;;2.70;99.90;;;;;;5051546;28;20121;-61
2022/01/07 11:58:14;;;;;;;15.38;8.20;;;2.70;99.90;;;;;;5051719;28;20023;-55
2022/01/07 12:01:00;;;;;;;13.40;7.78;;;2.80;99.90;;;;;;5052687;28;20417;-56
2022/01/07 12:03:46;;;;;;;14.50;7.82;;;2.80;99.90;;;;;;5053194;28;20393;-56
2022/01/07 12:06:30;;;;;;;14.32;8.23;;;2.70;99.90;;;;;;5051876;28;20063;-57
2022/01/07 12:09:19;;;;;;;18.52;8.50;;;2.80;99.90;;;;;;5051995;28;20028;-54
2022/01/07 12:12:13;;;;;;;10.70;7.45;;;2.70;99.90;;;;;;5053234;28;20036;-56
2022/01/07 12:15:02;;;;;;;16.90;8.20;;;2.80;99.90;;;;;;5052125;28;20051;-56
2022/01/07 12:17:46;;;;;;;14.63;7.78;;;2.70;99.90;;;;;;5051523;28;20032;-56
2022/01/07 12:20:50;;;;;;;12.43;7.78;;;2.80;99.90;;;;;;5052356;28;20091;-55
2022/01/07 12:23:36;;;;;;;11.00;7.22;;;2.80;99.90;;;;;;5052550;28;20511;-53
2022/01/07 12:26:24;;;;;;;13.52;8.23;;;2.80;99.90;;;;;;5051529;28;20085;-57
2022/01/07 12:29:20;;;;;;;12.43;8.27;;;2.80;99.90;;;;;;5051151;28;20120;-56
2022/01/07 12:32:06;;;;;;;12.85;7.50;;;2.90;99.90;;;;;;5052832;28;20028;-56
2022/01/07 12:34:50;;;;;;;11.63;7.53;;;3.00;99.90;;;;;;5054781;28;20205;-57
2022/01/07 12:37:35;;;;;;;26.33;16.15;;;3.10;99.90;;;;;;5054808;28;20114;-55
2022/01/07 12:40:19;;;;;;;;;;;3.00;99.90;;;;;;5054947;28;20589;-54
2022/01/07 12:43:04;;;;;;;17.67;9.20;;;3.10;99.90;;;;;;5053849;28;19970;-54
2022/01/07 12:46:03;;;;;;;13.07;7.57;;;3.10;99.90;;;;;;5055647;28;20059;-54
2022/01/07 12:48:47;;;;;;;10.70;7.30;;;3.10;99.90;;;;;;5055579;28;20036;-53
2022/01/07 12:51:32;;;;;;;15.48;8.82;;;3.20;99.90;;;;;;5056674;28;20151;-52
2022/01/07 12:54:16;;;;;;;10.50;7.55;;;3.20;99.90;;;;;;5056091;28;20036;-56
2022/01/07 12:57:01;;;;;;;10.38;7.13;;;3.20;99.90;;;;;;5055160;28;20044;-56
2022/01/07 12:59:45;;;;;;;;;;;3.10;99.90;;;;;;5057141;28;20056;-55
2022/01/07 13:02:31;;;;;;;10.50;6.65;;;3.10;99.90;;;;;;5056785;28;19934;-58
2022/01/07 13:05:31;;;;;;;9.98;6.85;;;3.20;99.90;;;;;;5055620;28;20047;-56
2022/01/07 13:08:19;;;;;;;12.32;6.90;;;3.20;99.90;;;;;;5055842;28;20044;-54
2022/01/07 13:11:04;;;;;;;8.77;6.25;;;3.10;99.90;;;;;;5055662;28;20035;-53
2022/01/07 13:14:07;;;;;;;10.77;7.10;;;3.00;99.90;;;;;;5055578;28;20032;-54
2022/01/07 13:16:57;;;;;;;14.38;7.43;;;3.00;99.90;;;;;;5055836;28;20051;-55
2022/01/07 13:19:44;;;;;;;9.82;6.47;;;3.00;99.90;;;;;;5056222;28;20519;-55
2022/01/07 13:22:31;;;;;;;10.45;6.22;;;3.00;99.90;;;;;;5055989;28;20040;-58
2022/01/07 13:25:15;;;;;;;10.32;6.63;;;3.10;99.90;;;;;;5055624;28;20044;-58
2022/01/07 13:28:00;;;;;;;8.18;6.80;;;3.00;99.90;;;;;;5053758;28;20063;-56
2022/01/07 13:30:45;;;;;;;13.68;7.18;;;3.00;99.90;;;;;;5055619;28;20047;-54
2022/01/07 13:33:31;;;;;;;11.68;6.68;;;3.10;99.90;;;;;;5053487;28;20118;-56
2022/01/07 13:36:16;;;;;;;10.55;6.78;;;3.10;99.90;;;;;;5053282;28;20047;-57
2022/01/07 13:39:01;;;;;;;10.35;6.88;;;3.20;99.90;;;;;;5051169;28;20090;-55
2022/01/07 13:41:57;;;;;;;14.13;7.38;;;3.20;99.90;;;;;;5054117;28;20059;-54
2022/01/07 13:44:51;;;;;;;10.55;7.10;;;3.20;99.90;;;;;;5052902;28;20104;-58
2022/01/07 13:47:37;;;;;;;9.90;6.82;;;3.20;99.90;;;;;;5054760;28;20063;-56
2022/01/07 13:50:28;;;;;;;11.27;7.18;;;3.20;99.90;;;;;;5052058;28;20048;-55
2022/01/07 13:53:18;;;;;;;10.13;7.45;;;3.20;99.90;;;;;;5053592;28;20579;-54
2022/01/07 13:56:10;;;;;;;12.63;7.90;;;3.20;99.90;;;;;;5053879;28;20531;-55
2022/01/07 13:59:02;;;;;;;10.65;7.68;;;3.20;99.90;;;;;;5066738;28;20569;-57
2022/01/07 14:01:54;;;;;;;15.48;8.40;;;3.20;99.90;;;;;;5053682;28;20098;-55
2022/01/07 14:04:44;;;;;;;12.13;7.47;;;3.20;99.90;;;;;;5053582;28;20531;-56
2022/01/07 14:07:30;;;;;;;10.05;7.38;;;3.20;99.90;;;;;;5053134;28;20534;-50
2022/01/07 14:10:15;;;;;;;13.80;7.88;;;3.20;99.90;;;;;;5053218;28;20032;-56
2022/01/07 14:13:07;;;;;;;;;;;3.20;99.90;;;;;;5053318;28;20036;-54
2022/01/07 14:15:54;;;;;;;10.45;7.47;;;3.20;99.90;;;;;;5050406;28;19947;-51
2022/01/07 14:18:38;;;;;;;10.32;6.45;;;3.30;99.90;;;;;;5052436;28;20132;-54
2022/01/07 14:21:22;;;;;;;8.50;6.25;;;3.30;99.90;;;;;;5050461;28;20123;-57
2022/01/07 14:24:07;;;;;;;9.00;6.25;;;3.30;99.90;;;;;;5046659;28;20047;-55
2022/01/07 14:26:51;;;;;;;7.70;6.25;;;3.30;99.90;;;;;;5052843;28;20538;-53
2022/01/07 14:29:35;;;;;;;9.30;6.47;;;3.30;99.90;;;;;;5052991;28;20117;-55
2022/01/07 14:32:20;;;;;;;8.85;5.82;;;3.40;99.90;;;;;;5051984;28;20039;-56
2022/01/07 14:35:08;;;;;;;9.43;6.95;;;3.40;99.90;;;;;;5055503;28;20083;-54
2022/01/07 14:37:52;;;;;;;10.18;6.57;;;3.30;99.90;;;;;;5052796;28;20102;-55